createdAt,value
2019-02-03T00:00:30.751Z,100756.55
2019-02-03T00:01:38.819Z,100750.39
2019-02-03T00:02:43.783Z,100754.88
2019-02-03T00:03:49.410Z,100753.47
2019-02-03T00:04:54.757Z,100748.68
2019-02-03T00:05:59.664Z,100755.17
2019-02-03T00:07:04.982Z,100757.23
2019-02-03T00:08:10.134Z,100757.17
2019-02-03T00:09:16.578Z,100760.55
2019-02-03T00:10:21.550Z,100756.61
2019-02-03T00:11:26.514Z,100760.09
2019-02-03T00:12:31.612Z,100763.11
2019-02-03T00:13:36.988Z,100760.39
2019-02-03T00:14:42.037Z,100766.48
2019-02-03T00:15:47.340Z,100767.34
2019-02-03T00:16:52.367Z,100760.39
2019-02-03T00:17:57.469Z,100761.17
2019-02-03T00:19:02.516Z,100762.84
2019-02-03T00:20:08.982Z,100764.95
2019-02-03T00:21:14.317Z,100770.48
2019-02-03T00:22:19.264Z,100763.47
2019-02-03T00:23:24.609Z,100767.80
2019-02-03T00:24:29.773Z,100763.86
2019-02-03T00:25:38.304Z,100770.78
2019-02-03T00:26:44.005Z,100770.25
2019-02-03T00:27:49.026Z,100766.67
2019-02-03T00:28:54.299Z,100769.70
2019-02-03T00:30:00.361Z,100770.45
2019-02-03T00:31:06.299Z,100766.44
2019-02-03T00:32:11.349Z,100770.31
2019-02-03T00:33:16.642Z,100776.31
2019-02-03T00:34:21.663Z,100783.73
2019-02-03T00:35:26.671Z,100794.70
2019-02-03T00:36:31.618Z,100795.26
2019-02-03T00:37:37.022Z,100797.20
2019-02-03T00:38:42.361Z,100793.42
2019-02-03T00:39:47.273Z,100796.73
2019-02-03T00:40:52.405Z,100799.69
2019-02-03T00:41:57.696Z,100805.17
2019-02-03T00:43:02.939Z,100807.59
2019-02-03T00:44:08.326Z,100809.53
2019-02-03T00:45:15.099Z,100812.77
2019-02-03T00:46:20.751Z,100820.31
2019-02-03T00:47:25.961Z,100816.94
2019-02-03T00:48:31.081Z,100822.64
2019-02-03T00:49:36.075Z,100819.66
2019-02-03T00:50:41.144Z,100819.72
2019-02-03T00:51:46.129Z,100820.28
2019-02-03T00:52:51.070Z,100818.47
2019-02-03T00:53:56.073Z,100822.05
2019-02-03T00:55:00.990Z,100829.91
2019-02-03T00:56:06.633Z,100820.80
2019-02-03T00:57:11.541Z,100826.14
2019-02-03T00:58:16.511Z,100826.99
2019-02-03T00:59:21.596Z,100829.98
2019-02-03T01:00:26.575Z,100831.69
2019-02-03T01:01:31.657Z,100835.53
2019-02-03T01:02:36.717Z,100838.48
2019-02-03T01:03:41.846Z,100847.97
2019-02-03T01:04:46.860Z,100842.27
2019-02-03T01:05:52.004Z,100845.25
2019-02-03T01:06:57.946Z,100847.41
2019-02-03T01:08:03.309Z,100850.37
2019-02-03T01:09:11.501Z,100861.63
2019-02-03T01:10:18.532Z,100860.21
2019-02-03T01:11:24.069Z,100862.31
2019-02-03T01:12:29.467Z,100859.59
2019-02-03T01:13:34.414Z,100865.54
2019-02-03T01:14:40.008Z,100872.49
2019-02-03T01:15:45.061Z,100869.41
2019-02-03T01:16:50.294Z,100878.89
2019-02-03T01:17:55.662Z,100874.04
2019-02-03T01:19:00.865Z,100877.88
2019-02-03T01:20:08.332Z,100879.12
2019-02-03T01:21:13.334Z,100885.69
2019-02-03T01:22:18.416Z,100879.59
2019-02-03T01:23:23.410Z,100891.34
2019-02-03T01:24:28.315Z,100890.03
2019-02-03T01:25:33.410Z,100895.34
2019-02-03T01:26:38.904Z,100890.16
2019-02-03T01:27:44.391Z,100895.04
2019-02-03T01:28:50.415Z,100896.41
2019-02-03T01:29:55.694Z,100899.99
2019-02-03T01:31:01.091Z,100898.74
2019-02-03T01:32:06.294Z,100899.59
2019-02-03T01:33:11.391Z,100903.53
2019-02-03T01:34:17.151Z,100905.70
2019-02-03T01:35:22.797Z,100900.52
2019-02-03T01:36:28.108Z,100914.48
2019-02-03T01:37:39.762Z,100899.59
2019-02-03T01:38:40.174Z,100913.94
2019-02-03T01:39:45.134Z,100912.63
2019-02-03T01:40:50.228Z,100905.54
2019-02-03T01:41:55.605Z,100903.77
2019-02-03T01:43:00.617Z,100903.28
2019-02-03T01:44:05.867Z,100909.72
2019-02-03T01:45:13.289Z,100907.45
2019-02-03T01:46:18.479Z,100907.39
2019-02-03T01:47:24.468Z,100907.39
2019-02-03T01:48:29.492Z,100914.80
2019-02-03T01:49:35.101Z,100923.14
2019-02-03T01:50:40.105Z,100921.53
2019-02-03T01:51:45.050Z,100923.36
2019-02-03T01:52:50.287Z,100920.83
2019-02-03T01:53:55.204Z,100925.69
2019-02-03T01:55:00.337Z,100927.06
2019-02-03T01:56:05.384Z,100929.69
2019-02-03T01:57:10.385Z,100931.09
2019-02-03T01:58:15.690Z,100932.86
2019-02-03T01:59:20.803Z,100932.10
2019-02-03T02:00:27.031Z,100937.81
2019-02-03T02:01:32.550Z,100935.25
2019-02-03T02:02:37.604Z,100934.48
2019-02-03T02:03:42.820Z,100934.09
2019-02-03T02:04:49.346Z,100935.80
2019-02-03T02:05:54.343Z,100939.28
2019-02-03T02:06:59.701Z,100943.13
2019-02-03T02:08:04.889Z,100946.69
2019-02-03T02:09:10.046Z,100951.84
2019-02-03T02:10:17.842Z,100951.39
2019-02-03T02:11:22.832Z,100956.64
2019-02-03T02:12:27.769Z,100949.78
2019-02-03T02:13:32.723Z,100958.87
2019-02-03T02:14:37.650Z,100958.02
2019-02-03T02:15:43.661Z,100959.81
2019-02-03T02:16:48.755Z,100967.69
2019-02-03T02:17:54.143Z,100967.36
2019-02-03T02:18:59.061Z,100968.21
2019-02-03T02:20:05.323Z,100969.13
2019-02-03T02:21:10.331Z,100970.44
2019-02-03T02:22:15.301Z,100977.55
2019-02-03T02:23:20.759Z,100979.41
2019-02-03T02:24:25.985Z,100981.80
2019-02-03T02:25:31.429Z,100988.75
2019-02-03T02:26:36.353Z,100986.19
2019-02-03T02:27:41.822Z,100983.56
2019-02-03T02:28:46.792Z,100979.17
2019-02-03T02:29:51.911Z,100981.80
2019-02-03T02:30:56.990Z,100981.80
2019-02-03T02:32:01.932Z,100985.27
2019-02-03T02:33:07.608Z,100986.13
2019-02-03T02:34:12.865Z,100978.71
2019-02-03T02:35:17.808Z,100977.86
2019-02-03T02:36:22.864Z,100973.92
2019-02-03T02:37:28.104Z,100976.94
2019-02-03T02:38:33.176Z,100971.20
2019-02-03T02:39:38.394Z,100976.45
2019-02-03T02:40:43.277Z,100969.83
2019-02-03T02:41:48.315Z,100972.84
2019-02-03T02:42:53.733Z,100977.16
2019-02-03T02:43:58.955Z,100977.16
2019-02-03T02:45:04.501Z,100973.70
2019-02-03T02:46:09.865Z,100977.24
2019-02-03T02:47:15.169Z,100970.75
2019-02-03T02:48:20.167Z,100973.77
2019-02-03T02:49:26.051Z,100972.05
2019-02-03T02:50:36.735Z,100966.05
2019-02-03T02:51:41.695Z,100969.53
2019-02-03T02:52:46.719Z,100969.06
2019-02-03T02:53:52.048Z,100979.63
2019-02-03T02:54:57.092Z,100970.90
2019-02-03T02:56:02.318Z,100977.45
2019-02-03T02:57:07.599Z,100974.83
2019-02-03T02:58:12.652Z,100981.03
2019-02-03T02:59:18.178Z,100981.85
2019-02-03T03:00:23.288Z,100981.34
2019-02-03T03:01:28.649Z,100983.50
2019-02-03T03:02:33.642Z,100979.93
2019-02-03T03:03:38.557Z,100979.47
2019-02-03T03:04:43.504Z,100983.34
2019-02-03T03:05:48.556Z,100986.43
2019-02-03T03:06:53.981Z,100988.20
2019-02-03T03:07:59.076Z,100988.14
2019-02-03T03:09:06.997Z,100988.59
2019-02-03T03:10:13.375Z,100989.91
2019-02-03T03:11:18.438Z,100990.77
2019-02-03T03:12:23.949Z,100985.97
2019-02-03T03:13:29.293Z,100991.73
2019-02-03T03:14:34.259Z,100992.53
2019-02-03T03:15:39.201Z,100998.55
2019-02-03T03:16:45.513Z,101003.34
2019-02-03T03:17:51.057Z,101001.17
2019-02-03T03:18:56.075Z,101000.77
2019-02-03T03:20:01.441Z,101001.72
2019-02-03T03:21:06.530Z,101001.26
2019-02-03T03:22:11.808Z,101006.36
2019-02-03T03:23:16.855Z,101003.80
2019-02-03T03:24:21.900Z,101002.02
2019-02-03T03:25:27.048Z,101004.19
2019-02-03T03:26:32.577Z,101009.89
2019-02-03T03:27:37.684Z,101008.98
2019-02-03T03:28:42.631Z,101001.56
2019-02-03T03:29:47.533Z,101001.93
2019-02-03T03:30:52.463Z,101011.05
2019-02-03T03:31:57.818Z,101007.12
2019-02-03T03:33:02.937Z,100997.62
2019-02-03T03:34:07.861Z,100998.55
2019-02-03T03:35:13.268Z,100999.45
2019-02-03T03:36:18.676Z,101000.71
2019-02-03T03:37:24.238Z,100995.52
2019-02-03T03:38:32.246Z,100997.69
2019-02-03T03:39:36.518Z,100994.20
2019-02-03T03:40:42.044Z,100999.09
2019-02-03T03:41:47.026Z,100994.36
2019-02-03T03:42:52.657Z,100998.84
2019-02-03T03:43:57.642Z,100997.94
2019-02-03T03:45:02.664Z,101005.81
2019-02-03T03:46:08.147Z,101013.28
2019-02-03T03:47:13.099Z,101017.67
2019-02-03T03:48:18.121Z,101008.48
2019-02-03T03:49:23.124Z,101019.38
2019-02-03T03:50:28.513Z,101018.44
2019-02-03T03:51:34.532Z,101014.44
2019-02-03T03:52:39.783Z,101019.14
2019-02-03T03:53:44.744Z,101026.05
2019-02-03T03:54:49.782Z,101022.31
2019-02-03T03:55:54.832Z,101026.59
2019-02-03T03:57:00.137Z,101026.10
2019-02-03T03:58:05.926Z,101028.66
2019-02-03T03:59:11.177Z,101034.77
2019-02-03T04:00:19.347Z,101042.19
2019-02-03T04:01:24.585Z,101042.19
2019-02-03T04:02:30.235Z,101036.78
2019-02-03T04:03:35.303Z,101044.57
2019-02-03T04:04:40.261Z,101037.95
2019-02-03T04:05:45.329Z,101039.66
2019-02-03T04:06:50.461Z,101037.03
2019-02-03T04:07:55.458Z,101029.52
2019-02-03T04:09:00.689Z,101033.09
2019-02-03T04:10:07.323Z,101032.14
2019-02-03T04:11:12.683Z,101037.80
2019-02-03T04:12:17.720Z,101035.56
2019-02-03T04:13:22.659Z,101026.38
2019-02-03T04:14:27.961Z,101034.25
2019-02-03T04:15:33.094Z,101028.66
2019-02-03T04:16:38.106Z,101027.91
2019-02-03T04:17:45.402Z,101024.18
2019-02-03T04:18:50.709Z,101031.69
2019-02-03T04:19:56.108Z,101026.95
2019-02-03T04:21:01.164Z,101032.36
2019-02-03T04:22:06.283Z,101030.28
2019-02-03T04:23:11.314Z,101037.76
2019-02-03T04:24:16.969Z,101043.86
2019-02-03T04:25:22.168Z,101046.03
2019-02-03T04:26:27.174Z,101051.28
2019-02-03T04:27:32.051Z,101060.52
2019-02-03T04:28:37.018Z,101058.84
2019-02-03T04:29:42.288Z,101069.40
2019-02-03T04:30:47.271Z,101073.73
2019-02-03T04:31:52.606Z,101075.56
2019-02-03T04:32:57.539Z,101076.88
2019-02-03T04:34:02.790Z,101083.44
2019-02-03T04:35:07.980Z,101095.25
2019-02-03T04:36:12.901Z,101102.66
2019-02-03T04:37:17.870Z,101103.61
2019-02-03T04:38:22.809Z,101119.27
2019-02-03T04:39:27.740Z,101121.44
2019-02-03T04:40:32.654Z,101127.91
2019-02-03T04:41:37.554Z,101131.39
2019-02-03T04:42:42.575Z,101135.67
2019-02-03T04:43:47.812Z,101135.12
2019-02-03T04:44:53.304Z,101142.91
2019-02-03T04:45:58.965Z,101155.11
2019-02-03T04:47:04.548Z,101149.41
2019-02-03T04:48:09.594Z,101160.67
2019-02-03T04:49:14.607Z,101162.84
2019-02-03T04:50:21.347Z,101167.64
2019-02-03T04:51:26.268Z,101176.28
2019-02-03T04:52:31.473Z,101175.91
2019-02-03T04:53:37.443Z,101183.78
2019-02-03T04:54:42.383Z,101189.50
2019-02-03T04:55:47.442Z,101191.27
2019-02-03T04:56:52.451Z,101194.75
2019-02-03T04:57:57.465Z,101193.03
2019-02-03T04:59:02.596Z,101194.66
2019-02-03T05:00:09.975Z,101200.70
2019-02-03T05:01:14.991Z,101200.16
2019-02-03T05:02:19.917Z,101203.19
2019-02-03T05:03:25.017Z,101204.81
2019-02-03T05:04:30.024Z,101206.98
2019-02-03T05:05:34.976Z,101205.67
2019-02-03T05:06:39.925Z,101202.64
2019-02-03T05:07:45.195Z,101211.47
2019-02-03T05:08:50.633Z,101212.38
2019-02-03T05:09:56.149Z,101221.16
2019-02-03T05:11:01.346Z,101213.29
2019-02-03T05:12:06.365Z,101215.55
2019-02-03T05:13:11.689Z,101217.31
2019-02-03T05:14:16.603Z,101216.14
2019-02-03T05:15:23.543Z,101211.35
2019-02-03T05:16:28.524Z,101215.75
2019-02-03T05:17:33.430Z,101209.23
2019-02-03T05:18:38.701Z,101209.78
2019-02-03T05:19:43.618Z,101207.21
2019-02-03T05:20:48.817Z,101211.64
2019-02-03T05:21:54.103Z,101210.33
2019-02-03T05:22:59.042Z,101214.13
2019-02-03T05:24:04.360Z,101218.83
2019-02-03T05:25:13.171Z,101218.37
2019-02-03T05:26:18.238Z,101222.77
2019-02-03T05:27:23.232Z,101223.31
2019-02-03T05:28:28.743Z,101225.59
2019-02-03T05:29:33.728Z,101222.28
2019-02-03T05:30:38.732Z,101217.14
2019-02-03T05:31:43.780Z,101221.22
2019-02-03T05:32:48.881Z,101224.44
2019-02-03T05:33:54.210Z,101225.44
2019-02-03T05:34:59.476Z,101231.23
2019-02-03T05:36:04.946Z,101223.35
2019-02-03T05:37:09.978Z,101228.60
2019-02-03T05:38:33.117Z,101240.41
2019-02-03T05:39:38.411Z,101243.95
2019-02-03T05:40:43.374Z,101257.52
2019-02-03T05:41:48.358Z,101255.75
2019-02-03T05:42:53.418Z,101257.97
2019-02-03T05:43:58.590Z,101262.40
2019-02-03T05:45:04.102Z,101262.85
2019-02-03T05:46:09.032Z,101269.87
2019-02-03T05:47:13.933Z,101272.95
2019-02-03T05:48:19.020Z,101273.86
2019-02-03T05:49:24.207Z,101277.42
2019-02-03T05:50:29.139Z,101284.44
2019-02-03T05:51:34.429Z,101288.42
2019-02-03T05:52:39.439Z,101294.08
2019-02-03T05:53:44.377Z,101303.12
2019-02-03T05:54:49.285Z,101302.58
2019-02-03T05:55:55.476Z,101299.00
2019-02-03T05:57:00.499Z,101294.07
2019-02-03T05:58:05.593Z,101291.36
2019-02-03T05:59:10.524Z,101292.30
2019-02-03T06:00:27.133Z,101287.83
2019-02-03T06:01:32.052Z,101289.59
2019-02-03T06:02:36.972Z,101295.24
2019-02-03T06:03:41.909Z,101298.27
2019-02-03T06:04:47.404Z,101295.11
2019-02-03T06:05:52.754Z,101302.44
2019-02-03T06:06:57.704Z,101297.19
2019-02-03T06:08:02.992Z,101301.08
2019-02-03T06:09:09.488Z,101297.54
2019-02-03T06:10:16.328Z,101297.54
2019-02-03T06:11:21.302Z,101301.93
2019-02-03T06:12:26.511Z,101302.84
2019-02-03T06:13:31.664Z,101299.36
2019-02-03T06:14:37.077Z,101306.78
2019-02-03T06:15:42.002Z,101303.38
2019-02-03T06:16:47.825Z,101306.38
2019-02-03T06:17:53.187Z,101309.95
2019-02-03T06:18:58.089Z,101310.45
2019-02-03T06:20:03.080Z,101312.70
2019-02-03T06:21:08.012Z,101309.68
2019-02-03T06:22:12.961Z,101316.23
2019-02-03T06:23:18.253Z,101312.84
2019-02-03T06:24:23.385Z,101319.91
2019-02-03T06:25:28.707Z,101319.53
2019-02-03T06:26:33.716Z,101322.62
2019-02-03T06:27:39.062Z,101320.85
2019-02-03T06:28:44.342Z,101323.07
2019-02-03T06:29:50.058Z,101320.05
2019-02-03T06:31:15.025Z,101324.89
2019-02-03T06:32:20.404Z,101321.49
2019-02-03T06:33:26.155Z,101319.32
2019-02-03T06:34:31.190Z,101322.40
2019-02-03T06:35:36.780Z,101326.42
2019-02-03T06:36:41.904Z,101323.07
2019-02-03T06:37:46.998Z,101324.06
2019-02-03T06:38:53.373Z,101325.42
2019-02-03T06:39:58.380Z,101326.87
2019-02-03T06:41:03.620Z,101334.34
2019-02-03T06:42:09.113Z,101330.16
2019-02-03T06:43:14.922Z,101323.73
2019-02-03T06:44:19.816Z,101333.42
2019-02-03T06:45:33.290Z,101328.76
2019-02-03T06:46:57.591Z,101327.98
2019-02-03T06:48:03.363Z,101324.63
2019-02-03T06:49:15.202Z,101328.24
2019-02-03T06:50:20.523Z,101330.55
2019-02-03T06:51:25.581Z,101335.84
2019-02-03T06:52:31.205Z,101329.41
2019-02-03T06:53:36.415Z,101333.92
2019-02-03T06:54:41.432Z,101332.20
2019-02-03T06:55:46.772Z,101341.52
2019-02-03T06:56:51.834Z,101341.14
2019-02-03T06:57:57.772Z,101337.66
2019-02-03T06:59:02.682Z,101338.61
2019-02-03T07:00:07.887Z,101340.41
2019-02-03T07:01:12.950Z,101341.31
2019-02-03T07:02:17.966Z,101347.46
2019-02-03T07:03:22.979Z,101349.23
2019-02-03T07:04:27.983Z,101347.09
2019-02-03T07:05:32.908Z,101344.06
2019-02-03T07:06:37.883Z,101345.42
2019-02-03T07:07:42.826Z,101347.67
2019-02-03T07:08:47.773Z,101349.89
2019-02-03T07:10:00.511Z,101343.86
2019-02-03T07:10:59.490Z,101348.70
2019-02-03T07:12:05.799Z,101351.45
2019-02-03T07:13:11.159Z,101354.97
2019-02-03T07:14:16.571Z,101354.97
2019-02-03T07:15:21.556Z,101359.36
2019-02-03T07:16:26.594Z,101361.12
2019-02-03T07:17:31.556Z,101363.73
2019-02-03T07:18:36.516Z,101367.67
2019-02-03T07:19:41.578Z,101358.98
2019-02-03T07:20:46.569Z,101363.81
2019-02-03T07:21:51.809Z,101366.44
2019-02-03T07:22:57.078Z,101360.79
2019-02-03T07:24:02.047Z,101365.63
2019-02-03T07:25:07.149Z,101355.63
2019-02-03T07:26:12.181Z,101357.84
2019-02-03T07:27:17.191Z,101360.05
2019-02-03T07:28:22.543Z,101358.38
2019-02-03T07:29:27.556Z,101359.27
2019-02-03T07:30:32.728Z,101369.76
2019-02-03T07:31:38.044Z,101371.97
2019-02-03T07:32:43.082Z,101376.44
2019-02-03T07:33:48.350Z,101378.20
2019-02-03T07:34:53.733Z,101376.48
2019-02-03T07:35:58.957Z,101379.50
2019-02-03T07:37:04.563Z,101385.20
2019-02-03T07:38:10.725Z,101381.27
2019-02-03T07:39:15.767Z,101385.20
2019-02-03T07:40:21.044Z,101386.51
2019-02-03T07:41:26.158Z,101385.73
2019-02-03T07:42:31.165Z,101389.66
2019-02-03T07:43:36.408Z,101387.03
2019-02-03T07:44:41.341Z,101387.94
2019-02-03T07:45:46.543Z,101391.87
2019-02-03T07:46:51.532Z,101391.09
2019-02-03T07:47:56.495Z,101392.84
2019-02-03T07:49:01.443Z,101398.54
2019-02-03T07:50:06.890Z,101402.06
2019-02-03T07:51:11.885Z,101397.27
2019-02-03T07:52:17.043Z,101405.54
2019-02-03T07:53:22.299Z,101404.68
2019-02-03T07:54:27.261Z,101403.00
2019-02-03T07:55:32.540Z,101406.85
2019-02-03T07:56:37.827Z,101405.62
2019-02-03T07:57:43.323Z,101413.85
2019-02-03T07:58:48.210Z,101416.09
2019-02-03T07:59:54.609Z,101405.62
2019-02-03T08:00:59.688Z,101412.99
2019-02-03T08:02:04.799Z,101420.03
2019-02-03T08:03:09.787Z,101419.55
2019-02-03T08:04:14.715Z,101423.02
2019-02-03T08:05:20.137Z,101417.78
2019-02-03T08:06:25.215Z,101421.27
2019-02-03T08:07:30.332Z,101424.74
2019-02-03T08:08:35.586Z,101432.08
2019-02-03T08:09:40.525Z,101427.69
2019-02-03T08:10:45.746Z,101431.17
2019-02-03T08:11:50.737Z,101436.83
2019-02-03T08:12:55.795Z,101435.11
2019-02-03T08:14:00.718Z,101443.37
2019-02-03T08:15:08.674Z,101441.13
2019-02-03T08:16:13.959Z,101440.30
2019-02-03T08:17:18.896Z,101446.78
2019-02-03T08:18:24.000Z,101450.67
2019-02-03T08:19:29.484Z,101451.05
2019-02-03T08:20:35.015Z,101456.65
2019-02-03T08:21:40.204Z,101454.03
2019-02-03T08:22:45.182Z,101450.47
2019-02-03T08:23:51.242Z,101454.41
2019-02-03T08:24:56.645Z,101462.22
2019-02-03T08:26:01.609Z,101458.67
2019-02-03T08:27:06.667Z,101458.17
2019-02-03T08:28:12.015Z,101462.03
2019-02-03T08:29:16.937Z,101462.84
2019-02-03T08:30:22.697Z,101467.16
2019-02-03T08:31:27.595Z,101468.02
2019-02-03T08:32:32.770Z,101471.04
2019-02-03T08:33:37.689Z,101477.55
2019-02-03T08:34:43.044Z,101476.62
2019-02-03T08:35:48.122Z,101477.02
2019-02-03T08:36:53.429Z,101480.55
2019-02-03T08:37:58.387Z,101482.72
2019-02-03T08:39:04.877Z,101483.17
2019-02-03T08:40:13.759Z,101479.64
2019-02-03T08:41:18.816Z,101481.81
2019-02-03T08:42:24.138Z,101482.27
2019-02-03T08:43:29.118Z,101483.58
2019-02-03T08:44:34.082Z,101486.12
2019-02-03T08:45:39.578Z,101484.81
2019-02-03T08:46:44.548Z,101490.91
2019-02-03T08:47:49.580Z,101488.37
2019-02-03T08:48:54.618Z,101496.23
2019-02-03T08:50:00.051Z,101495.78
2019-02-03T08:51:05.466Z,101500.16
2019-02-03T08:52:10.474Z,101500.16
2019-02-03T08:53:15.757Z,101504.43
2019-02-03T08:54:20.710Z,101503.08
2019-02-03T08:55:26.052Z,101502.09
2019-02-03T08:56:31.086Z,101504.53
2019-02-03T08:57:36.361Z,101514.85
2019-02-03T08:58:41.276Z,101511.66
2019-02-03T08:59:46.192Z,101509.32
2019-02-03T09:00:51.098Z,101512.27
2019-02-03T09:01:57.404Z,101519.13
2019-02-03T09:03:02.794Z,101512.44
2019-02-03T09:04:08.298Z,101514.98
2019-02-03T09:05:14.313Z,101519.28
2019-02-03T09:06:19.182Z,101520.06
2019-02-03T09:07:24.108Z,101523.47
2019-02-03T09:08:29.126Z,101522.16
2019-02-03T09:09:34.049Z,101522.61
2019-02-03T09:10:47.982Z,101526.17
2019-02-03T09:11:46.442Z,101527.94
2019-02-03T09:12:51.504Z,101528.84
2019-02-03T09:13:56.433Z,101527.52
2019-02-03T09:15:01.401Z,101536.33
2019-02-03T09:16:06.528Z,101540.27
2019-02-03T09:17:11.517Z,101544.66
2019-02-03T09:18:16.730Z,101536.78
2019-02-03T09:19:21.740Z,101542.03
2019-02-03T09:20:29.065Z,101541.58
2019-02-03T09:21:34.102Z,101538.02
2019-02-03T09:22:40.130Z,101538.42
2019-02-03T09:23:45.023Z,101542.36
2019-02-03T09:24:50.207Z,101544.53
2019-02-03T09:25:55.350Z,101539.33
2019-02-03T09:27:00.877Z,101541.09
2019-02-03T09:28:06.404Z,101545.52
2019-02-03T09:29:11.601Z,101553.38
2019-02-03T09:30:19.519Z,101555.07
2019-02-03T09:31:24.541Z,101544.98
2019-02-03T09:32:29.806Z,101547.61
2019-02-03T09:33:34.724Z,101552.41
2019-02-03T09:34:39.745Z,101551.09
2019-02-03T09:35:44.796Z,101555.48
2019-02-03T09:36:50.030Z,101555.89
2019-02-03T09:37:55.429Z,101556.79
2019-02-03T09:39:00.426Z,101559.82
2019-02-03T09:40:08.294Z,101559.82
2019-02-03T09:41:13.291Z,101557.57
2019-02-03T09:42:18.223Z,101567.57
2019-02-03T09:43:23.513Z,101565.32
2019-02-03T09:44:28.899Z,101561.88
2019-02-03T09:45:33.878Z,101570.57
2019-02-03T09:46:38.934Z,101566.14
2019-02-03T09:47:43.841Z,101569.09
2019-02-03T09:48:48.945Z,101576.44
2019-02-03T09:49:53.885Z,101579.88
2019-02-03T09:50:59.418Z,101574.09
2019-02-03T09:52:04.709Z,101583.61
2019-02-03T09:53:10.085Z,101582.25
2019-02-03T09:54:15.032Z,101581.80
2019-02-03T09:55:20.456Z,101580.41
2019-02-03T09:56:25.765Z,101577.34
2019-02-03T09:57:31.082Z,101570.73
2019-02-03T09:58:35.948Z,101578.53
2019-02-03T09:59:40.901Z,101583.66
2019-02-03T10:00:45.898Z,101581.44
2019-02-03T10:01:50.813Z,101583.16
2019-02-03T10:02:57.248Z,101586.16
2019-02-03T10:04:03.249Z,101589.59
2019-02-03T10:05:08.643Z,101588.66
2019-02-03T10:06:13.952Z,101595.22
2019-02-03T10:07:19.881Z,101593.41
2019-02-03T10:08:24.803Z,101598.98
2019-02-03T10:09:29.841Z,101592.38
2019-02-03T10:10:36.641Z,101593.16
2019-02-03T10:11:41.613Z,101600.05
2019-02-03T10:12:47.603Z,101600.38
2019-02-03T10:13:52.803Z,101606.45
2019-02-03T10:14:58.153Z,101600.26
2019-02-03T10:16:03.093Z,101601.07
2019-02-03T10:17:08.103Z,101607.10
2019-02-03T10:18:13.223Z,101604.48
2019-02-03T10:19:18.238Z,101609.16
2019-02-03T10:20:24.054Z,101608.66
2019-02-03T10:21:29.120Z,101607.80
2019-02-03T10:22:34.528Z,101613.78
2019-02-03T10:23:39.440Z,101618.95
2019-02-03T10:24:44.357Z,101618.83
2019-02-03T10:25:49.444Z,101622.27
2019-02-03T10:26:54.476Z,101623.09
2019-02-03T10:27:59.529Z,101623.05
2019-02-03T10:29:05.016Z,101625.55
2019-02-03T10:30:10.814Z,101616.35
2019-02-03T10:31:15.865Z,101623.25
2019-02-03T10:32:20.939Z,101632.39
2019-02-03T10:33:25.914Z,101628.78
2019-02-03T10:34:31.272Z,101634.89
2019-02-03T10:35:36.794Z,101636.61
2019-02-03T10:36:42.065Z,101639.23
2019-02-03T10:37:48.597Z,101644.41
2019-02-03T10:38:53.616Z,101637.84
2019-02-03T10:39:58.592Z,101639.11
2019-02-03T10:41:03.650Z,101649.09
2019-02-03T10:42:08.651Z,101656.44
2019-02-03T10:43:13.851Z,101651.09
2019-02-03T10:44:18.873Z,101652.64
2019-02-03T10:45:24.594Z,101656.86
2019-02-03T10:46:29.608Z,101660.95
2019-02-03T10:47:34.956Z,101656.75
2019-02-03T10:48:39.997Z,101662.56
2019-02-03T10:49:46.697Z,101660.05
2019-02-03T10:50:51.820Z,101657.19
2019-02-03T10:51:56.854Z,101657.78
2019-02-03T10:53:01.938Z,101662.77
2019-02-03T10:54:07.141Z,101662.18
2019-02-03T10:55:13.994Z,101660.73
2019-02-03T10:56:18.994Z,101666.77
2019-02-03T10:57:24.239Z,101665.53
2019-02-03T10:58:32.131Z,101666.91
2019-02-03T10:59:37.637Z,101671.30
2019-02-03T11:00:42.969Z,101668.35
2019-02-03T11:01:47.909Z,101675.06
2019-02-03T11:02:53.081Z,101676.88
2019-02-03T11:03:57.983Z,101678.27
2019-02-03T11:05:05.104Z,101676.19
2019-02-03T11:06:10.267Z,101676.56
2019-02-03T11:07:15.266Z,101678.81
2019-02-03T11:08:20.330Z,101678.41
2019-02-03T11:09:25.337Z,101683.67
2019-02-03T11:10:30.487Z,101680.58
2019-02-03T11:12:42.232Z,101686.57
2019-02-03T11:13:47.142Z,101689.52
2019-02-03T11:14:52.133Z,101691.62
2019-02-03T11:15:57.390Z,101692.93
2019-02-03T11:17:02.530Z,101693.33
2019-02-03T11:18:07.759Z,101695.83
2019-02-03T11:19:13.193Z,101700.55
2019-02-03T11:20:21.046Z,101700.05
2019-02-03T11:21:26.499Z,101705.17
2019-02-03T11:22:31.986Z,101699.81
2019-02-03T11:23:37.488Z,101705.85
2019-02-03T11:24:42.391Z,101700.45
2019-02-03T11:25:47.447Z,101706.08
2019-02-03T11:26:52.380Z,101707.71
2019-02-03T11:27:57.410Z,101706.17
2019-02-03T11:29:02.370Z,101705.21
2019-02-03T11:30:11.485Z,101705.98
2019-02-03T11:31:16.467Z,101702.90
2019-02-03T11:32:21.423Z,101704.94
2019-02-03T11:33:26.401Z,101701.77
2019-02-03T11:34:31.602Z,101711.25
2019-02-03T11:35:36.739Z,101706.75
2019-02-03T11:36:41.734Z,101709.25
2019-02-03T11:37:46.905Z,101707.28
2019-02-03T11:38:52.211Z,101718.45
2019-02-03T11:39:57.919Z,101720.44
2019-02-03T11:41:03.326Z,101721.93
2019-02-03T11:42:08.244Z,101712.52
2019-02-03T11:43:13.249Z,101712.75
2019-02-03T11:44:18.256Z,101715.64
2019-02-03T11:45:31.985Z,101715.91
2019-02-03T11:46:37.036Z,101718.25
2019-02-03T11:47:41.924Z,101723.78
2019-02-03T11:48:46.880Z,101728.05
2019-02-03T11:49:51.816Z,101733.26
2019-02-03T11:50:56.886Z,101728.45
2019-02-03T11:52:01.768Z,101729.82
2019-02-03T11:53:09.606Z,101736.95
2019-02-03T11:54:14.684Z,101744.45
2019-02-03T11:55:19.707Z,101737.00
2019-02-03T11:56:24.925Z,101733.59
2019-02-03T11:57:29.962Z,101740.64
2019-02-03T11:58:35.297Z,101738.55
2019-02-03T11:59:40.489Z,101739.06
2019-02-03T12:00:45.766Z,101740.01
2019-02-03T12:01:50.756Z,101739.15
2019-02-03T12:02:56.196Z,101738.75
2019-02-03T12:04:01.439Z,101743.16
2019-02-03T12:05:07.212Z,101735.66
2019-02-03T12:06:12.544Z,101750.55
2019-02-03T12:07:17.627Z,101743.50
2019-02-03T12:08:22.815Z,101747.83
2019-02-03T12:09:27.731Z,101749.09
2019-02-03T12:10:33.006Z,101747.77
2019-02-03T12:11:38.127Z,101752.89
2019-02-03T12:12:43.196Z,101748.80
2019-02-03T12:13:48.117Z,101753.92
2019-02-03T12:14:55.301Z,101754.19
2019-02-03T12:16:10.116Z,101749.03
2019-02-03T12:17:11.880Z,101747.89
2019-02-03T12:18:16.928Z,101759.91
2019-02-03T12:19:21.815Z,101757.14
2019-02-03T12:20:26.806Z,101756.63
2019-02-03T12:21:31.752Z,101759.48
2019-02-03T12:22:36.991Z,101758.02
2019-02-03T12:23:42.483Z,101763.95
2019-02-03T12:24:47.560Z,101767.70
2019-02-03T12:25:52.636Z,101765.83
2019-02-03T12:26:57.594Z,101767.31
2019-02-03T12:28:10.765Z,101771.66